< < Back
Terminal Aerodrome Forecast


Current Version              Previous Versions:   1  2  3  4  5  6  7  8  9  

Terminal Aerodrome Forecast

623
FTUS42 KTAE 171200 RRA
TAFTLH
TAF
KTLH 171202Z 1712/1812 06006KT P6SM BKN045
     FM171400 07011G18KT P6SM BKN025
     FM180300 08008KT P6SM OVC015
     FM180700 08008KT 5SM RA OVC008=



Latest METAR

723
SAUS80 KWBC 171500 RRB
MTRTLH
METAR KTLH 171453Z 08012KT 10SM BKN019 18/11 A3030 RMK AO2 SLP259
T01830106 51016


USA.gov is the U.S. government's official web portal to all federal, state and local government web resources and services.